createdAt,value
2022-10-16T00:01:16.592Z,5.13
2022-10-16T00:03:44.569Z,3.40
2022-10-16T00:06:12.349Z,5.07
2022-10-16T00:08:39.419Z,5.13
2022-10-16T00:11:12.150Z,3.00
2022-10-16T00:13:40.493Z,4.47
2022-10-16T00:16:08.139Z,6.95
2022-10-16T00:18:35.417Z,2.50
2022-10-16T00:21:14.153Z,6.07
2022-10-16T00:23:41.673Z,5.75
2022-10-16T21:04:10.259Z,7.07
2022-10-16T21:06:39.411Z,11.52
2022-10-16T21:09:06.840Z,7.40
2022-10-16T21:11:35.954Z,8.98
2022-10-16T21:14:05.234Z,13.60
2022-10-16T21:16:32.361Z,7.78
2022-10-16T21:19:05.542Z,8.45
2022-10-16T21:21:35.809Z,8.90
2022-10-16T21:24:02.542Z,7.88
2022-10-16T21:26:30.246Z,9.65
2022-10-16T21:29:06.155Z,9.52
2022-10-16T21:31:34.022Z,11.07
2022-10-16T21:34:00.980Z,11.18
2022-10-16T21:36:30.091Z,10.25
2022-10-16T21:39:01.187Z,8.38
2022-10-16T21:41:29.507Z,10.38
2022-10-16T21:43:57.937Z,10.68
2022-10-16T21:46:27.222Z,11.82
2022-10-16T21:48:55.285Z,10.85
2022-10-16T21:51:30.250Z,11.07
2022-10-16T21:53:57.205Z,12.40
2022-10-16T21:56:24.243Z,12.82
2022-10-16T21:58:52.686Z,9.35
2022-10-16T22:01:23.683Z,11.85
2022-10-16T22:03:51.313Z,11.75
2022-10-16T22:08:51.406Z,12.07
2022-10-16T22:11:23.036Z,13.13
2022-10-16T22:13:56.668Z,13.50
2022-10-16T22:16:25.886Z,11.63
2022-10-16T22:18:54.310Z,13.45
2022-10-16T22:21:21.669Z,11.45
2022-10-16T22:23:48.282Z,15.02
2022-10-16T22:26:15.386Z,15.57
2022-10-16T22:28:42.325Z,16.17
2022-10-16T22:31:33.768Z,14.35
2022-10-16T22:34:03.008Z,13.13
2022-10-16T22:36:56.540Z,13.40
2022-10-16T22:39:24.058Z,13.30
2022-10-16T22:41:50.937Z,14.80
2022-10-16T22:44:17.667Z,13.57
2022-10-16T22:46:44.748Z,13.18
2022-10-16T22:49:12.700Z,12.90
2022-10-16T22:51:39.429Z,14.48
2022-10-16T22:54:06.216Z,14.32
2022-10-16T22:56:32.800Z,18.98
2022-10-16T22:58:59.356Z,15.75
2022-10-16T23:01:35.476Z,14.10
2022-10-16T23:04:02.151Z,14.82
2022-10-16T23:06:29.692Z,15.80
2022-10-16T23:08:59.465Z,11.85
2022-10-16T23:11:29.159Z,13.82
2022-10-16T23:13:56.383Z,13.77
2022-10-16T23:16:24.188Z,11.73
2022-10-16T23:18:51.158Z,14.10
2022-10-16T23:21:25.074Z,13.98
2022-10-16T23:23:53.619Z,13.52
2022-10-16T23:26:25.884Z,15.60
2022-10-16T23:29:00.692Z,14.43
2022-10-16T23:31:30.908Z,13.77
2022-10-16T23:33:58.922Z,13.38
2022-10-16T23:36:26.039Z,12.75
2022-10-16T23:38:53.559Z,16.67
2022-10-16T23:41:20.892Z,11.90
2022-10-16T23:43:48.038Z,15.88
2022-10-16T23:46:15.762Z,13.05
2022-10-16T23:48:42.562Z,15.07
2022-10-16T23:51:09.909Z,13.73
2022-10-16T23:53:37.033Z,13.68
2022-10-16T23:56:03.774Z,13.15
2022-10-16T23:58:30.575Z,11.85
